createdAt,value
2019-04-04T00:01:29.642Z,15.43
2019-04-04T00:03:59.606Z,15.10
2019-04-04T00:06:29.604Z,14.87
2019-04-04T00:09:01.697Z,15.13
2019-04-04T00:11:32.735Z,14.70
2019-04-04T00:14:02.695Z,14.33
2019-04-04T00:16:32.678Z,15.70
2019-04-04T00:19:02.640Z,15.20
2019-04-04T00:21:33.970Z,15.53
2019-04-04T00:24:04.380Z,15.37
2019-04-04T00:26:34.373Z,15.20
2019-04-04T00:29:04.401Z,15.43
2019-04-04T00:31:34.384Z,14.63
2019-04-04T00:34:04.351Z,15.10
2019-04-04T00:36:34.830Z,15.17
2019-04-04T00:39:09.099Z,15.10
2019-04-04T00:41:39.217Z,15.10
2019-04-04T00:44:09.180Z,15.40
2019-04-04T00:46:40.236Z,13.93
2019-04-04T00:49:10.195Z,14.27
2019-04-04T00:51:40.180Z,14.43
2019-04-04T00:54:10.147Z,13.90
2019-04-04T00:56:40.132Z,14.93
2019-04-04T00:59:10.093Z,15.60
2019-04-04T01:01:40.080Z,15.00
2019-04-04T01:04:10.111Z,15.73
2019-04-04T01:06:40.152Z,14.50
2019-04-04T01:09:13.313Z,14.97
2019-04-04T01:11:41.742Z,14.93
2019-04-04T01:14:11.699Z,14.40
2019-04-04T01:16:41.680Z,14.93
2019-04-04T01:19:11.641Z,14.73
2019-04-04T01:21:41.624Z,13.73
2019-04-04T01:24:11.590Z,14.13
2019-04-04T01:26:41.573Z,14.23
2019-04-04T01:29:11.535Z,14.37
2019-04-04T01:31:41.517Z,14.50
2019-04-04T01:34:11.483Z,14.60
2019-04-04T01:36:41.470Z,14.50
2019-04-04T01:39:11.435Z,14.20
2019-04-04T01:41:41.420Z,13.97
2019-04-04T01:44:11.818Z,13.93
2019-04-04T01:46:41.838Z,13.40
2019-04-04T01:49:11.787Z,13.80
2019-04-04T01:51:41.768Z,13.50
2019-04-04T01:54:12.797Z,12.30
2019-04-04T01:56:42.786Z,12.80
2019-04-04T01:59:13.001Z,13.53
2019-04-04T02:01:43.114Z,13.07
2019-04-04T02:04:13.068Z,13.77
2019-04-04T02:06:43.053Z,13.13
2019-04-04T02:09:13.024Z,13.00
2019-04-04T02:11:43.008Z,13.10
2019-04-04T02:14:12.975Z,12.53
2019-04-04T02:16:42.956Z,12.63
2019-04-04T02:19:12.916Z,13.67
2019-04-04T02:21:43.963Z,12.77
2019-04-04T02:24:13.931Z,12.53
2019-04-04T02:26:43.908Z,12.87
2019-04-04T02:29:13.868Z,12.60
2019-04-04T02:31:45.483Z,12.10
2019-04-04T02:34:15.452Z,13.93
2019-04-04T02:36:48.802Z,12.40
2019-04-04T02:39:19.039Z,12.47
2019-04-04T02:41:49.360Z,12.37
2019-04-04T02:44:19.401Z,12.40
2019-04-04T02:46:49.467Z,11.83
2019-04-04T02:49:19.426Z,11.23
2019-04-04T02:51:49.396Z,11.83
2019-04-04T02:54:23.969Z,12.27
2019-04-04T02:56:50.951Z,12.13
2019-04-04T02:59:22.029Z,11.67
2019-04-04T03:01:52.255Z,12.17
2019-04-04T03:04:22.203Z,12.47
2019-04-04T03:06:57.391Z,12.53
2019-04-04T03:09:23.923Z,12.00
2019-04-04T03:11:54.797Z,12.20
2019-04-04T03:14:25.915Z,11.97
2019-04-04T03:16:56.778Z,11.53
2019-04-04T03:19:27.460Z,11.93
2019-04-04T03:21:57.439Z,11.93
2019-04-04T03:24:27.387Z,11.87
2019-04-04T03:26:57.364Z,10.43
2019-04-04T03:29:27.312Z,12.47
2019-04-04T03:31:57.284Z,11.90
2019-04-04T03:34:27.231Z,11.07
2019-04-04T03:36:57.213Z,11.17
2019-04-04T03:39:27.143Z,11.57
2019-04-04T03:41:58.189Z,11.63
2019-04-04T03:44:28.135Z,10.43
2019-04-04T03:46:58.107Z,11.03
2019-04-04T03:49:28.082Z,11.23
2019-04-04T03:51:58.068Z,11.37
2019-04-04T03:54:28.587Z,10.53
2019-04-04T03:56:58.551Z,11.03
2019-04-04T03:59:29.601Z,11.87
2019-04-04T04:02:00.118Z,12.13
2019-04-04T04:04:30.093Z,11.57
2019-04-04T04:07:00.038Z,12.23
2019-04-04T04:09:30.093Z,11.40
2019-04-04T04:12:00.035Z,11.67
2019-04-04T04:14:30.016Z,11.20
2019-04-04T04:16:59.969Z,11.23
2019-04-04T04:19:31.314Z,10.77
2019-04-04T04:22:01.476Z,11.37
2019-04-04T04:24:31.527Z,11.17
2019-04-04T04:27:01.517Z,11.03
2019-04-04T04:29:31.559Z,12.83
2019-04-04T04:32:01.549Z,13.37
2019-04-04T04:34:34.054Z,24.87
2019-04-04T04:37:03.102Z,16.40
2019-04-04T04:39:38.220Z,13.63
2019-04-04T04:42:04.696Z,13.07
2019-04-04T04:44:37.780Z,12.80
2019-04-04T04:47:06.239Z,13.10
2019-04-04T04:49:36.453Z,11.93
2019-04-04T04:52:06.472Z,13.00
2019-04-04T04:54:36.436Z,13.50
2019-04-04T04:57:06.386Z,13.40
2019-04-04T04:59:36.366Z,14.97
2019-04-04T05:02:06.317Z,13.73
2019-04-04T05:04:36.278Z,13.40
2019-04-04T05:07:07.459Z,13.80
2019-04-04T05:09:37.900Z,13.87
2019-04-04T05:12:07.844Z,14.17
2019-04-04T05:14:37.826Z,13.40
2019-04-04T05:17:08.073Z,13.40
2019-04-04T05:19:39.362Z,12.70
2019-04-04T05:22:09.787Z,13.20
2019-04-04T05:24:39.796Z,13.67
2019-04-04T05:27:09.747Z,14.67
2019-04-04T05:29:39.726Z,15.67
2019-04-04T05:32:09.671Z,14.80
2019-04-04T05:34:39.642Z,14.93
2019-04-04T05:37:09.586Z,15.10
2019-04-04T05:39:39.568Z,14.83
2019-04-04T05:42:09.663Z,14.00
2019-04-04T05:44:41.646Z,14.23
2019-04-04T05:47:11.193Z,14.50
2019-04-04T05:49:41.159Z,15.97
2019-04-04T05:52:11.102Z,15.70
2019-04-04T05:54:42.038Z,15.97
2019-04-04T05:57:12.060Z,16.50
2019-04-04T05:59:42.446Z,17.30
2019-04-04T06:02:13.251Z,15.57
2019-04-04T06:04:43.218Z,16.33
2019-04-04T06:07:16.190Z,15.93
2019-04-04T06:09:46.968Z,17.00
2019-04-04T06:12:16.340Z,15.57
2019-04-04T06:14:46.314Z,17.67
2019-04-04T06:17:16.263Z,18.30
2019-04-04T06:19:46.234Z,18.97
2019-04-04T06:22:16.186Z,21.73
2019-04-04T06:24:46.210Z,21.47
2019-04-04T06:27:16.158Z,23.27
2019-04-04T06:29:47.692Z,21.57
2019-04-04T06:32:17.775Z,21.93
2019-04-04T06:34:47.815Z,23.13
2019-04-04T06:37:18.069Z,21.93
2019-04-04T06:39:49.350Z,22.57
2019-04-04T06:42:19.294Z,22.97
2019-04-04T06:44:49.344Z,22.47
2019-04-04T06:47:19.292Z,23.83
2019-04-04T06:49:49.365Z,24.23
2019-04-04T06:52:19.361Z,21.33
2019-04-04T06:54:50.323Z,18.33
2019-04-04T06:57:20.263Z,19.13
2019-04-04T06:59:51.244Z,17.67
2019-04-04T07:02:21.967Z,15.07
2019-04-04T07:04:52.883Z,14.97
2019-04-04T07:07:22.843Z,13.53
2019-04-04T07:09:52.990Z,11.73
2019-04-04T07:12:28.222Z,9.70
2019-04-04T07:14:54.640Z,9.13
2019-04-04T07:17:24.681Z,9.37
2019-04-04T07:19:54.651Z,9.90
2019-04-04T07:22:25.467Z,9.67
2019-04-04T07:24:55.454Z,9.47
2019-04-04T07:27:25.397Z,9.17
2019-04-04T07:29:56.925Z,8.80
2019-04-04T07:32:27.898Z,9.37
2019-04-04T07:34:57.876Z,9.43
2019-04-04T07:37:27.822Z,8.80
2019-04-04T07:39:57.794Z,8.30
2019-04-04T07:42:28.821Z,9.30
2019-04-04T07:44:58.867Z,9.93
2019-04-04T07:47:28.812Z,8.60
2019-04-04T07:49:58.784Z,8.77
2019-04-04T07:52:28.737Z,9.30
2019-04-04T07:54:58.707Z,9.33
2019-04-04T07:57:30.126Z,8.73
2019-04-04T08:00:00.254Z,9.13
2019-04-04T08:02:30.199Z,8.80
2019-04-04T08:05:00.241Z,9.60
2019-04-04T08:07:30.189Z,8.20
2019-04-04T08:10:00.274Z,8.67
2019-04-04T08:12:30.228Z,8.87
2019-04-04T08:15:00.696Z,8.70
2019-04-04T08:17:30.687Z,8.20
2019-04-04T08:20:00.657Z,9.13
2019-04-04T08:22:30.605Z,7.83
2019-04-04T08:25:00.579Z,8.23
2019-04-04T08:27:30.600Z,8.80
2019-04-04T08:30:00.570Z,7.70
2019-04-04T08:32:30.518Z,8.57
2019-04-04T08:35:00.486Z,8.03
2019-04-04T08:37:30.435Z,7.80
2019-04-04T08:40:00.413Z,7.30
2019-04-04T08:42:30.355Z,7.10
2019-04-04T08:45:00.419Z,7.47
2019-04-04T08:47:30.366Z,7.90
2019-04-04T08:50:00.349Z,8.17
2019-04-04T08:52:30.344Z,7.83
2019-04-04T08:55:00.486Z,8.97
2019-04-04T08:57:30.443Z,6.87
2019-04-04T09:00:00.483Z,18.10
2019-04-04T09:02:30.435Z,8.23
2019-04-04T09:05:11.134Z,8.37
2019-04-04T09:07:32.039Z,7.80
2019-04-04T09:10:02.013Z,6.70
2019-04-04T09:12:31.954Z,7.83
2019-04-04T09:15:02.972Z,6.80
2019-04-04T09:17:32.920Z,10.13
2019-04-04T09:20:04.231Z,7.40
2019-04-04T09:22:34.178Z,6.50
2019-04-04T09:25:10.485Z,6.40
2019-04-04T09:27:40.423Z,5.83
2019-04-04T09:30:12.035Z,6.03
2019-04-04T09:32:41.984Z,6.03
2019-04-04T09:35:12.587Z,5.90
2019-04-04T09:37:42.535Z,6.47
2019-04-04T09:40:14.286Z,5.60
2019-04-04T09:42:44.230Z,6.20
2019-04-04T09:45:14.339Z,5.73
2019-04-04T09:47:45.422Z,6.00
2019-04-04T09:50:15.933Z,6.03
2019-04-04T09:52:45.871Z,5.87
2019-04-04T09:55:15.979Z,6.67
2019-04-04T09:57:45.931Z,6.33
2019-04-04T10:00:19.290Z,5.60
2019-04-04T10:02:49.399Z,5.93
2019-04-04T10:05:19.703Z,5.90
2019-04-04T10:07:49.716Z,6.57
2019-04-04T10:10:19.751Z,6.13
2019-04-04T10:12:50.680Z,6.00
2019-04-04T10:15:20.721Z,6.60
2019-04-04T10:17:50.663Z,6.27
2019-04-04T10:20:20.643Z,6.17
2019-04-04T10:22:50.582Z,5.90
2019-04-04T10:25:20.551Z,6.13
2019-04-04T10:27:50.711Z,6.67
2019-04-04T10:30:20.755Z,6.13
2019-04-04T10:32:50.702Z,5.70
2019-04-04T10:35:20.671Z,5.67
2019-04-04T10:37:50.614Z,5.83
2019-04-04T10:40:20.828Z,5.97
2019-04-04T10:42:50.774Z,6.20
2019-04-04T10:45:20.742Z,6.03
2019-04-04T10:47:50.690Z,5.77
2019-04-04T10:50:20.667Z,5.67
2019-04-04T10:52:50.620Z,5.37
2019-04-04T10:55:20.667Z,6.10
2019-04-04T10:57:50.610Z,5.47
2019-04-04T11:00:22.387Z,5.97
2019-04-04T11:02:52.403Z,6.80
2019-04-04T11:05:22.375Z,6.57
2019-04-04T11:07:52.347Z,6.07
2019-04-04T11:10:22.296Z,5.60
2019-04-04T11:12:52.442Z,5.97
2019-04-04T11:15:22.415Z,5.97
2019-04-04T11:17:52.407Z,6.00
2019-04-04T11:20:22.404Z,6.57
2019-04-04T11:22:52.376Z,4.70
2019-04-04T11:25:22.328Z,4.83
2019-04-04T11:27:52.295Z,4.90
2019-04-04T11:30:22.774Z,5.60
2019-04-04T11:32:52.752Z,5.93
2019-04-04T11:35:22.691Z,6.03
2019-04-04T11:37:52.657Z,5.70
2019-04-04T11:40:22.673Z,4.97
2019-04-04T11:42:52.677Z,5.20
2019-04-04T11:45:22.623Z,5.77
2019-04-04T11:47:52.590Z,5.83
2019-04-04T11:50:22.540Z,5.87
2019-04-04T11:52:52.507Z,5.63
2019-04-04T11:55:22.458Z,6.23
2019-04-04T11:57:52.428Z,6.27
2019-04-04T12:00:24.940Z,6.17
2019-04-04T12:02:54.912Z,5.60
2019-04-04T12:05:24.867Z,5.63
2019-04-04T12:07:54.839Z,6.40
2019-04-04T12:10:24.782Z,6.63
2019-04-04T12:12:54.759Z,6.27
2019-04-04T12:15:24.702Z,6.23
2019-04-04T12:17:54.738Z,6.10
2019-04-04T12:20:24.682Z,6.67
2019-04-04T12:22:54.652Z,6.47
2019-04-04T12:25:24.600Z,5.90
2019-04-04T12:27:54.591Z,5.30
2019-04-04T12:30:24.532Z,5.43
2019-04-04T12:32:54.494Z,5.27
2019-04-04T12:35:24.438Z,4.87
2019-04-04T12:37:54.415Z,4.93
2019-04-04T12:40:24.496Z,5.63
2019-04-04T12:42:54.462Z,4.73
2019-04-04T12:45:24.532Z,4.80
2019-04-04T12:47:54.508Z,5.07
2019-04-04T12:50:24.454Z,5.00
2019-04-04T12:52:54.431Z,5.23
2019-04-04T12:55:24.370Z,5.10
2019-04-04T12:57:57.749Z,5.47
2019-04-04T13:00:28.202Z,5.70
2019-04-04T13:03:00.134Z,5.40
2019-04-04T13:05:30.243Z,6.00
2019-04-04T13:08:00.299Z,5.27
2019-04-04T13:10:33.411Z,5.03
2019-04-04T13:13:02.158Z,5.70
2019-04-04T13:15:32.188Z,5.63
2019-04-04T13:18:02.162Z,5.40
2019-04-04T13:20:32.154Z,6.23
2019-04-04T13:23:02.168Z,5.60
2019-04-04T13:25:32.067Z,5.73
2019-04-04T13:28:02.043Z,4.83
2019-04-04T13:30:32.000Z,5.60
2019-04-04T13:33:01.981Z,5.37
2019-04-04T13:35:31.926Z,5.87
2019-04-04T13:38:01.900Z,6.00
2019-04-04T13:40:31.851Z,6.30
2019-04-04T13:43:01.819Z,6.10
2019-04-04T13:45:31.763Z,5.80
2019-04-04T13:48:01.735Z,10.20
2019-04-04T13:50:31.705Z,6.03
2019-04-04T13:53:02.989Z,5.77
2019-04-04T13:55:35.231Z,5.17
2019-04-04T13:58:05.481Z,5.50
2019-04-04T14:00:36.434Z,5.70
2019-04-04T14:03:07.400Z,5.87
2019-04-04T14:05:37.404Z,5.93
2019-04-04T14:08:09.498Z,6.10
2019-04-04T14:10:40.495Z,6.43
2019-04-04T14:13:12.005Z,6.70
2019-04-04T14:15:42.027Z,6.27
2019-04-04T14:18:38.246Z,5.93
2019-04-04T14:21:03.270Z,5.53
2019-04-04T14:23:28.539Z,5.83
2019-04-04T14:26:00.042Z,6.27
2019-04-04T14:28:30.665Z,5.87
2019-04-04T14:31:00.671Z,5.87
2019-04-04T14:33:31.012Z,6.17
2019-04-04T14:36:00.963Z,6.03
2019-04-04T14:38:31.221Z,5.93
2019-04-04T14:41:11.149Z,6.00
2019-04-04T14:43:35.762Z,6.07
2019-04-04T14:46:07.587Z,5.83
2019-04-04T14:48:38.007Z,6.63
2019-04-04T14:51:08.220Z,6.07
2019-04-04T14:53:38.192Z,5.80
2019-04-04T14:56:08.136Z,6.27
2019-04-04T14:58:38.106Z,6.17
2019-04-04T15:01:08.159Z,6.00
2019-04-04T15:03:38.153Z,6.00
2019-04-04T15:06:08.082Z,6.57
2019-04-04T15:08:38.055Z,6.10
2019-04-04T15:11:08.009Z,5.83
2019-04-04T15:13:37.974Z,5.63
2019-04-04T15:16:16.327Z,5.30
2019-04-04T15:18:46.636Z,6.30
2019-04-04T15:21:16.751Z,5.67
2019-04-04T15:23:46.727Z,5.60
2019-04-04T15:26:16.679Z,5.63
2019-04-04T15:28:46.723Z,5.60
2019-04-04T15:31:16.672Z,5.93
2019-04-04T15:33:46.724Z,5.70
2019-04-04T15:36:16.668Z,5.23
2019-04-04T15:38:47.587Z,6.13
2019-04-04T15:41:17.643Z,6.17
2019-04-04T15:43:47.686Z,6.60
2019-04-04T15:46:17.639Z,6.23
2019-04-04T15:48:47.610Z,5.57
2019-04-04T15:51:17.556Z,5.40
2019-04-04T15:53:47.522Z,5.57
2019-04-04T15:56:17.468Z,5.67
2019-04-04T15:58:47.439Z,6.03
2019-04-04T16:01:17.399Z,5.33
2019-04-04T16:03:47.364Z,5.53
2019-04-04T16:06:17.314Z,5.63
2019-04-04T16:08:47.295Z,5.40
2019-04-04T16:11:17.288Z,5.73
2019-04-04T16:13:47.278Z,5.90
2019-04-04T16:16:17.227Z,5.57
2019-04-04T16:18:47.198Z,6.30
2019-04-04T16:21:17.146Z,6.03
2019-04-04T16:23:47.115Z,6.17
2019-04-04T16:26:17.062Z,6.93
2019-04-04T16:28:47.039Z,6.30
2019-04-04T16:31:17.556Z,5.60
2019-04-04T16:33:47.537Z,7.30
2019-04-04T16:36:17.483Z,5.70
2019-04-04T16:38:47.455Z,5.90
2019-04-04T16:41:17.474Z,6.10
2019-04-04T16:43:49.459Z,5.97
2019-04-04T16:46:19.018Z,6.17
2019-04-04T16:48:49.039Z,6.57
2019-04-04T16:51:19.018Z,6.37
2019-04-04T16:53:48.995Z,6.30
2019-04-04T16:56:18.942Z,6.53
2019-04-04T16:58:48.917Z,6.93
2019-04-04T17:01:18.960Z,6.30
2019-04-04T17:04:00.698Z,7.13
2019-04-04T17:06:20.492Z,6.73
2019-04-04T17:08:50.463Z,7.53
2019-04-04T17:11:20.424Z,7.27
2019-04-04T17:13:50.403Z,7.37
2019-04-04T17:16:21.464Z,7.90
2019-04-04T17:18:51.958Z,7.53
2019-04-04T17:21:21.904Z,7.63
2019-04-04T17:23:51.880Z,7.37
2019-04-04T17:26:21.943Z,7.87
2019-04-04T17:28:52.390Z,8.47
2019-04-04T17:31:22.742Z,8.77
2019-04-04T17:33:52.746Z,8.17
2019-04-04T17:36:22.699Z,8.13
2019-04-04T17:38:54.816Z,8.07
2019-04-04T17:41:24.250Z,7.50
2019-04-04T17:43:54.220Z,7.73
2019-04-04T17:46:24.170Z,7.47
2019-04-04T17:48:54.184Z,7.40
2019-04-04T17:51:24.159Z,7.70
2019-04-04T17:53:54.419Z,8.23
2019-04-04T17:56:24.835Z,7.30
2019-04-04T17:58:54.927Z,7.53
2019-04-04T18:01:24.875Z,7.63
2019-04-04T18:03:54.847Z,8.30
2019-04-04T18:06:24.807Z,8.13
2019-04-04T18:08:54.855Z,7.40
2019-04-04T18:11:24.805Z,7.70
2019-04-04T18:13:54.779Z,6.80
2019-04-04T18:16:24.802Z,7.90
2019-04-04T18:18:55.878Z,7.33
2019-04-04T18:21:25.827Z,7.60
2019-04-04T18:23:55.800Z,7.60
2019-04-04T18:26:26.722Z,8.20
2019-04-04T18:28:56.706Z,8.13
2019-04-04T18:31:26.666Z,8.10
2019-04-04T18:33:56.660Z,7.83
2019-04-04T18:36:26.619Z,8.17
2019-04-04T18:38:56.604Z,8.13
2019-04-04T18:41:26.548Z,8.03
2019-04-04T18:43:56.529Z,8.13
2019-04-04T18:46:26.479Z,8.80
2019-04-04T18:48:56.511Z,8.40
2019-04-04T18:51:26.459Z,8.40
2019-04-04T18:53:56.430Z,8.20
2019-04-04T18:56:26.413Z,8.40
2019-04-04T18:58:56.359Z,8.63
2019-04-04T19:01:26.331Z,8.77
2019-04-04T19:03:56.286Z,9.00
2019-04-04T19:06:26.255Z,9.37
2019-04-04T19:08:56.203Z,8.77
2019-04-04T19:11:26.179Z,9.13
2019-04-04T19:13:56.143Z,9.33
2019-04-04T19:16:26.183Z,9.97
2019-04-04T19:18:57.110Z,8.93
2019-04-04T19:21:27.116Z,9.20
2019-04-04T19:23:57.070Z,9.03
2019-04-04T19:26:27.051Z,8.93
2019-04-04T19:28:56.994Z,8.77
2019-04-04T19:31:27.164Z,9.23
2019-04-04T19:33:57.151Z,9.57
2019-04-04T19:36:27.136Z,9.90
2019-04-04T19:38:57.086Z,10.77
2019-04-04T19:41:27.116Z,10.10
2019-04-04T19:43:57.060Z,9.23
2019-04-04T19:46:36.566Z,10.23
2019-04-04T19:48:58.704Z,10.37
2019-04-04T19:51:31.395Z,9.73
2019-04-04T19:54:01.347Z,10.70
2019-04-04T19:56:31.401Z,10.53
2019-04-04T19:59:01.350Z,10.63
2019-04-04T20:01:31.318Z,10.10
2019-04-04T20:04:01.366Z,9.90
2019-04-04T20:06:31.464Z,9.00
2019-04-04T20:09:01.420Z,9.43
2019-04-04T20:11:32.995Z,10.10
2019-04-04T20:14:03.129Z,9.87
2019-04-04T20:16:33.168Z,8.87
2019-04-04T20:19:03.124Z,9.77
2019-04-04T20:21:33.114Z,9.37
2019-04-04T20:24:03.153Z,10.07
2019-04-04T20:26:33.127Z,9.07
2019-04-04T20:29:03.275Z,9.50
2019-04-04T20:31:33.247Z,9.67
2019-04-04T20:34:05.939Z,9.73
2019-04-04T20:36:34.903Z,10.03
2019-04-04T20:39:07.510Z,9.50
2019-04-04T20:41:37.551Z,10.23
2019-04-04T20:44:07.676Z,9.60
2019-04-04T20:46:37.647Z,10.37
2019-04-04T20:49:07.615Z,10.17
2019-04-04T20:51:37.596Z,10.10
2019-04-04T20:54:07.560Z,10.20
2019-04-04T20:56:37.611Z,10.00
2019-04-04T20:59:07.698Z,10.70
2019-04-04T21:01:37.668Z,9.33
2019-04-04T21:04:07.715Z,10.53
2019-04-04T21:06:37.777Z,9.60
2019-04-04T21:09:08.279Z,11.30
2019-04-04T21:11:38.260Z,10.30
2019-04-04T21:14:08.219Z,10.17
2019-04-04T21:16:38.211Z,11.10
2019-04-04T21:19:08.171Z,10.53
2019-04-04T21:21:38.143Z,10.50
2019-04-04T21:24:08.103Z,10.97
2019-04-04T21:26:38.128Z,10.13
2019-04-04T21:29:08.114Z,10.40
2019-04-04T21:31:38.089Z,9.93
2019-04-04T21:34:08.211Z,9.70
2019-04-04T21:36:38.191Z,9.20
2019-04-04T21:39:08.788Z,10.23
2019-04-04T21:41:38.887Z,10.33
2019-04-04T21:44:09.446Z,10.73
2019-04-04T21:46:40.503Z,10.93
2019-04-04T21:49:10.503Z,10.53
2019-04-04T21:51:40.492Z,11.53
2019-04-04T21:54:10.451Z,10.60
2019-04-04T21:56:40.439Z,11.30
2019-04-04T21:59:10.395Z,11.50
2019-04-04T22:01:40.539Z,12.23
2019-04-04T22:04:10.490Z,11.30
2019-04-04T22:06:40.471Z,10.63
2019-04-04T22:09:13.303Z,11.00
2019-04-04T22:11:43.284Z,10.17
2019-04-04T22:14:21.476Z,10.37
2019-04-04T22:16:44.931Z,10.50
2019-04-04T22:19:14.892Z,11.10
2019-04-04T22:21:44.874Z,10.37
2019-04-04T22:24:14.826Z,10.70
2019-04-04T22:26:44.811Z,11.27
2019-04-04T22:29:14.771Z,11.13
2019-04-04T22:31:44.787Z,10.13
2019-04-04T22:34:14.813Z,11.10
2019-04-04T22:36:44.727Z,10.40
2019-04-04T22:39:14.688Z,10.97
2019-04-04T22:41:44.667Z,10.70
2019-04-04T22:44:14.635Z,10.70
2019-04-04T22:46:44.624Z,10.40
2019-04-04T22:49:14.567Z,10.70
2019-04-04T22:51:44.558Z,10.23
2019-04-04T22:54:14.518Z,10.43
2019-04-04T22:56:44.490Z,10.47
2019-04-04T22:59:14.524Z,11.50
2019-04-04T23:01:44.502Z,10.70
2019-04-04T23:04:14.459Z,10.37
2019-04-04T23:06:45.503Z,10.43
2019-04-04T23:09:15.465Z,10.40
2019-04-04T23:11:45.442Z,11.60
2019-04-04T23:14:15.662Z,10.87
2019-04-04T23:16:45.647Z,11.17
2019-04-04T23:19:15.615Z,11.50
2019-04-04T23:21:45.650Z,10.20
2019-04-04T23:24:15.663Z,11.73
2019-04-04T23:26:45.643Z,10.57
2019-04-04T23:29:16.674Z,10.37
2019-04-04T23:31:46.664Z,11.13
2019-04-04T23:34:16.632Z,11.50
2019-04-04T23:36:46.631Z,11.90
2019-04-04T23:39:16.591Z,10.80
2019-04-04T23:41:46.575Z,11.63
2019-04-04T23:44:16.556Z,10.77
2019-04-04T23:46:46.699Z,11.50
2019-04-04T23:49:16.683Z,11.13
2019-04-04T23:51:46.878Z,12.97
2019-04-04T23:54:16.853Z,17.77
2019-04-04T23:56:46.823Z,26.70
2019-04-04T23:59:18.431Z,40.17
